sensor_id;sensor_type;location;lat;lon;timestamp;P1;durP1;ratioP1;P2;durP2;ratioP2
17214;SDS011;8723;51.502;6.918;2022-09-01T00:01:51;3.40;;;1.33;;
17214;SDS011;8723;51.502;6.918;2022-09-01T00:04:19;1.75;;;1.10;;
17214;SDS011;8723;51.502;6.918;2022-09-01T00:06:47;3.50;;;1.40;;
17214;SDS011;8723;51.502;6.918;2022-09-01T00:09:15;3.72;;;1.55;;
17214;SDS011;8723;51.502;6.918;2022-09-01T00:11:44;2.73;;;1.40;;
17214;SDS011;8723;51.502;6.918;2022-09-01T00:14:11;3.70;;;1.45;;
17214;SDS011;8723;51.502;6.918;2022-09-01T00:16:38;2.13;;;1.30;;
17214;SDS011;8723;51.502;6.918;2022-09-01T00:19:07;2.40;;;1.50;;
17214;SDS011;8723;51.502;6.918;2022-09-01T00:21:35;3.33;;;1.60;;
17214;SDS011;8723;51.502;6.918;2022-09-01T00:24:03;2.38;;;1.33;;
17214;SDS011;8723;51.502;6.918;2022-09-01T00:26:30;2.88;;;1.67;;
17214;SDS011;8723;51.502;6.918;2022-09-01T00:28:57;2.15;;;1.38;;
17214;SDS011;8723;51.502;6.918;2022-09-01T00:31:25;2.00;;;1.42;;
17214;SDS011;8723;51.502;6.918;2022-09-01T00:33:53;2.17;;;1.52;;
17214;SDS011;8723;51.502;6.918;2022-09-01T00:36:22;2.90;;;1.52;;
17214;SDS011;8723;51.502;6.918;2022-09-01T00:38:49;3.25;;;1.50;;
17214;SDS011;8723;51.502;6.918;2022-09-01T00:41:17;2.58;;;1.50;;
17214;SDS011;8723;51.502;6.918;2022-09-01T00:43:46;3.38;;;1.58;;
17214;SDS011;8723;51.502;6.918;2022-09-01T00:46:14;3.17;;;1.70;;
17214;SDS011;8723;51.502;6.918;2022-09-01T00:48:41;2.08;;;1.60;;
17214;SDS011;8723;51.502;6.918;2022-09-01T00:51:09;1.90;;;1.50;;
17214;SDS011;8723;51.502;6.918;2022-09-01T00:53:38;1.85;;;1.50;;
17214;SDS011;8723;51.502;6.918;2022-09-01T00:56:08;2.38;;;1.52;;
17214;SDS011;8723;51.502;6.918;2022-09-01T00:58:35;2.05;;;1.40;;
17214;SDS011;8723;51.502;6.918;2022-09-01T01:01:04;3.50;;;1.60;;
17214;SDS011;8723;51.502;6.918;2022-09-01T01:03:31;2.42;;;1.50;;
17214;SDS011;8723;51.502;6.918;2022-09-01T01:06:00;2.47;;;1.50;;
17214;SDS011;8723;51.502;6.918;2022-09-01T01:08:31;2.85;;;1.63;;
17214;SDS011;8723;51.502;6.918;2022-09-01T01:11:00;4.88;;;1.73;;
17214;SDS011;8723;51.502;6.918;2022-09-01T01:13:27;3.00;;;1.48;;
17214;SDS011;8723;51.502;6.918;2022-09-01T01:15:56;2.38;;;1.30;;
17214;SDS011;8723;51.502;6.918;2022-09-01T01:18:24;2.85;;;1.52;;
17214;SDS011;8723;51.502;6.918;2022-09-01T01:20:58;2.42;;;1.60;;
17214;SDS011;8723;51.502;6.918;2022-09-01T01:23:59;1.73;;;1.48;;
17214;SDS011;8723;51.502;6.918;2022-09-01T01:26:29;1.98;;;1.30;;
17214;SDS011;8723;51.502;6.918;2022-09-01T01:28:56;1.98;;;1.30;;
17214;SDS011;8723;51.502;6.918;2022-09-01T01:31:27;1.87;;;1.60;;
17214;SDS011;8723;51.502;6.918;2022-09-01T01:33:54;2.88;;;1.60;;
17214;SDS011;8723;51.502;6.918;2022-09-01T01:36:25;3.00;;;1.40;;
17214;SDS011;8723;51.502;6.918;2022-09-01T01:38:56;2.27;;;1.47;;
17214;SDS011;8723;51.502;6.918;2022-09-01T01:41:28;2.35;;;1.40;;
17214;SDS011;8723;51.502;6.918;2022-09-01T01:43:57;2.17;;;1.38;;
17214;SDS011;8723;51.502;6.918;2022-09-01T01:46:28;2.77;;;1.70;;
17214;SDS011;8723;51.502;6.918;2022-09-01T01:48:56;1.75;;;1.40;;
17214;SDS011;8723;51.502;6.918;2022-09-01T01:51:23;2.20;;;1.30;;
17214;SDS011;8723;51.502;6.918;2022-09-01T01:53:52;3.00;;;1.60;;
17214;SDS011;8723;51.502;6.918;2022-09-01T01:56:20;2.78;;;1.40;;
17214;SDS011;8723;51.502;6.918;2022-09-01T01:58:49;1.60;;;1.50;;
17214;SDS011;8723;51.502;6.918;2022-09-01T02:01:21;1.65;;;1.55;;
17214;SDS011;8723;51.502;6.918;2022-09-01T02:03:49;3.17;;;1.60;;
17214;SDS011;8723;51.502;6.918;2022-09-01T02:06:19;2.25;;;1.30;;
17214;SDS011;8723;51.502;6.918;2022-09-01T02:08:48;1.63;;;1.40;;
17214;SDS011;8723;51.502;6.918;2022-09-01T02:11:16;3.95;;;1.50;;
17214;SDS011;8723;51.502;6.918;2022-09-01T02:13:43;3.00;;;1.40;;
17214;SDS011;8723;51.502;6.918;2022-09-01T02:16:11;1.77;;;1.40;;
17214;SDS011;8723;51.502;6.918;2022-09-01T02:18:40;2.15;;;1.48;;
17214;SDS011;8723;51.502;6.918;2022-09-01T02:21:09;1.58;;;1.30;;
17214;SDS011;8723;51.502;6.918;2022-09-01T02:23:38;2.17;;;1.27;;
17214;SDS011;8723;51.502;6.918;2022-09-01T02:26:06;3.30;;;1.80;;
17214;SDS011;8723;51.502;6.918;2022-09-01T02:28:36;1.90;;;1.30;;
17214;SDS011;8723;51.502;6.918;2022-09-01T02:31:06;2.13;;;1.40;;
17214;SDS011;8723;51.502;6.918;2022-09-01T02:33:35;1.40;;;1.13;;
17214;SDS011;8723;51.502;6.918;2022-09-01T02:36:05;1.63;;;1.35;;
17214;SDS011;8723;51.502;6.918;2022-09-01T02:38:33;1.40;;;1.30;;
17214;SDS011;8723;51.502;6.918;2022-09-01T02:41:00;2.50;;;1.20;;
17214;SDS011;8723;51.502;6.918;2022-09-01T02:43:28;2.60;;;1.40;;
17214;SDS011;8723;51.502;6.918;2022-09-01T02:45:56;2.75;;;1.50;;
17214;SDS011;8723;51.502;6.918;2022-09-01T02:48:25;1.77;;;1.58;;
17214;SDS011;8723;51.502;6.918;2022-09-01T02:50:56;1.73;;;1.50;;
17214;SDS011;8723;51.502;6.918;2022-09-01T02:53:27;3.83;;;1.77;;
17214;SDS011;8723;51.502;6.918;2022-09-01T02:55:55;2.42;;;1.40;;
17214;SDS011;8723;51.502;6.918;2022-09-01T02:58:23;2.13;;;1.33;;
17214;SDS011;8723;51.502;6.918;2022-09-01T03:00:50;1.60;;;1.25;;
17214;SDS011;8723;51.502;6.918;2022-09-01T03:03:18;2.13;;;1.55;;
17214;SDS011;8723;51.502;6.918;2022-09-01T03:05:46;2.15;;;1.52;;
17214;SDS011;8723;51.502;6.918;2022-09-01T03:08:13;2.25;;;1.60;;
17214;SDS011;8723;51.502;6.918;2022-09-01T03:10:43;1.75;;;1.33;;
17214;SDS011;8723;51.502;6.918;2022-09-01T03:13:12;2.72;;;1.52;;
17214;SDS011;8723;51.502;6.918;2022-09-01T03:15:39;3.13;;;1.70;;
17214;SDS011;8723;51.502;6.918;2022-09-01T03:18:07;2.13;;;1.50;;
17214;SDS011;8723;51.502;6.918;2022-09-01T03:20:35;4.57;;;1.60;;
17214;SDS011;8723;51.502;6.918;2022-09-01T03:23:04;5.47;;;1.77;;
17214;SDS011;8723;51.502;6.918;2022-09-01T03:25:33;2.10;;;1.40;;
17214;SDS011;8723;51.502;6.918;2022-09-01T03:28:02;4.03;;;1.73;;
17214;SDS011;8723;51.502;6.918;2022-09-01T03:30:30;2.63;;;1.50;;
17214;SDS011;8723;51.502;6.918;2022-09-01T03:32:58;5.43;;;1.90;;
17214;SDS011;8723;51.502;6.918;2022-09-01T03:35:26;2.00;;;1.65;;
17214;SDS011;8723;51.502;6.918;2022-09-01T03:37:56;2.83;;;1.60;;
17214;SDS011;8723;51.502;6.918;2022-09-01T03:40:23;3.60;;;1.50;;
17214;SDS011;8723;51.502;6.918;2022-09-01T03:42:51;2.35;;;1.52;;
17214;SDS011;8723;51.502;6.918;2022-09-01T03:45:21;2.75;;;1.70;;
17214;SDS011;8723;51.502;6.918;2022-09-01T03:47:49;2.77;;;1.57;;
17214;SDS011;8723;51.502;6.918;2022-09-01T03:50:18;2.40;;;1.70;;
17214;SDS011;8723;51.502;6.918;2022-09-01T03:52:46;2.50;;;1.55;;
17214;SDS011;8723;51.502;6.918;2022-09-01T03:55:15;2.45;;;1.60;;
17214;SDS011;8723;51.502;6.918;2022-09-01T03:57:47;3.33;;;1.50;;
17214;SDS011;8723;51.502;6.918;2022-09-01T04:00:14;2.75;;;1.75;;
17214;SDS011;8723;51.502;6.918;2022-09-01T04:02:48;1.52;;;1.42;;
17214;SDS011;8723;51.502;6.918;2022-09-01T04:05:17;2.22;;;1.60;;
17214;SDS011;8723;51.502;6.918;2022-09-01T04:07:47;2.63;;;1.60;;
17214;SDS011;8723;51.502;6.918;2022-09-01T04:10:14;2.53;;;1.55;;
17214;SDS011;8723;51.502;6.918;2022-09-01T04:12:42;2.40;;;1.40;;
17214;SDS011;8723;51.502;6.918;2022-09-01T04:15:10;3.33;;;1.50;;
17214;SDS011;8723;51.502;6.918;2022-09-01T04:17:38;3.42;;;1.60;;
17214;SDS011;8723;51.502;6.918;2022-09-01T04:20:24;4.78;;;1.60;;
17214;SDS011;8723;51.502;6.918;2022-09-01T04:22:51;5.47;;;2.03;;
17214;SDS011;8723;51.502;6.918;2022-09-01T04:25:19;2.13;;;1.45;;
17214;SDS011;8723;51.502;6.918;2022-09-01T04:27:49;2.53;;;1.50;;
17214;SDS011;8723;51.502;6.918;2022-09-01T04:30:19;2.03;;;1.60;;
17214;SDS011;8723;51.502;6.918;2022-09-01T04:32:50;3.10;;;1.50;;
17214;SDS011;8723;51.502;6.918;2022-09-01T04:35:20;3.15;;;1.73;;
17214;SDS011;8723;51.502;6.918;2022-09-01T04:37:56;4.55;;;2.00;;
17214;SDS011;8723;51.502;6.918;2022-09-01T04:40:23;4.68;;;1.80;;
17214;SDS011;8723;51.502;6.918;2022-09-01T04:42:51;2.83;;;1.40;;
17214;SDS011;8723;51.502;6.918;2022-09-01T04:45:18;3.13;;;1.50;;
17214;SDS011;8723;51.502;6.918;2022-09-01T04:47:46;2.30;;;1.50;;
17214;SDS011;8723;51.502;6.918;2022-09-01T04:50:13;3.95;;;1.85;;
17214;SDS011;8723;51.502;6.918;2022-09-01T04:52:43;3.97;;;1.73;;
17214;SDS011;8723;51.502;6.918;2022-09-01T04:55:12;4.60;;;2.03;;
17214;SDS011;8723;51.502;6.918;2022-09-01T04:57:41;2.22;;;1.83;;
17214;SDS011;8723;51.502;6.918;2022-09-01T05:00:12;4.80;;;1.80;;
17214;SDS011;8723;51.502;6.918;2022-09-01T05:02:46;2.45;;;1.70;;
17214;SDS011;8723;51.502;6.918;2022-09-01T05:05:16;2.63;;;1.73;;
17214;SDS011;8723;51.502;6.918;2022-09-01T05:07:43;2.85;;;1.75;;
17214;SDS011;8723;51.502;6.918;2022-09-01T05:10:12;3.58;;;1.75;;
17214;SDS011;8723;51.502;6.918;2022-09-01T05:12:39;3.28;;;1.80;;
17214;SDS011;8723;51.502;6.918;2022-09-01T05:15:09;3.15;;;1.80;;
17214;SDS011;8723;51.502;6.918;2022-09-01T05:17:36;4.85;;;2.10;;
17214;SDS011;8723;51.502;6.918;2022-09-01T05:20:04;3.20;;;1.90;;
17214;SDS011;8723;51.502;6.918;2022-09-01T05:22:32;4.45;;;1.98;;
17214;SDS011;8723;51.502;6.918;2022-09-01T05:25:00;3.83;;;2.10;;
17214;SDS011;8723;51.502;6.918;2022-09-01T05:27:37;3.53;;;1.98;;
17214;SDS011;8723;51.502;6.918;2022-09-01T05:30:05;4.20;;;1.85;;
17214;SDS011;8723;51.502;6.918;2022-09-01T05:32:33;8.52;;;2.83;;
17214;SDS011;8723;51.502;6.918;2022-09-01T05:35:01;5.75;;;2.60;;
17214;SDS011;8723;51.502;6.918;2022-09-01T05:37:31;4.73;;;2.47;;
17214;SDS011;8723;51.502;6.918;2022-09-01T05:39:58;5.05;;;2.63;;
17214;SDS011;8723;51.502;6.918;2022-09-01T05:42:25;3.35;;;2.40;;
17214;SDS011;8723;51.502;6.918;2022-09-01T05:44:54;3.30;;;2.42;;
17214;SDS011;8723;51.502;6.918;2022-09-01T05:47:22;4.47;;;2.30;;
17214;SDS011;8723;51.502;6.918;2022-09-01T05:49:50;5.93;;;2.50;;
17214;SDS011;8723;51.502;6.918;2022-09-01T05:52:19;3.58;;;2.30;;
17214;SDS011;8723;51.502;6.918;2022-09-01T05:54:49;4.63;;;2.10;;
17214;SDS011;8723;51.502;6.918;2022-09-01T05:57:16;4.13;;;2.35;;
17214;SDS011;8723;51.502;6.918;2022-09-01T05:59:44;5.43;;;2.40;;
17214;SDS011;8723;51.502;6.918;2022-09-01T06:02:19;5.33;;;2.20;;
17214;SDS011;8723;51.502;6.918;2022-09-01T06:04:46;4.72;;;2.50;;
17214;SDS011;8723;51.502;6.918;2022-09-01T06:07:13;4.72;;;2.50;;
17214;SDS011;8723;51.502;6.918;2022-09-01T06:09:42;8.03;;;2.90;;
17214;SDS011;8723;51.502;6.918;2022-09-01T06:12:10;4.75;;;2.20;;
17214;SDS011;8723;51.502;6.918;2022-09-01T06:14:41;3.92;;;2.22;;
17214;SDS011;8723;51.502;6.918;2022-09-01T06:17:09;4.13;;;2.40;;
17214;SDS011;8723;51.502;6.918;2022-09-01T06:19:41;3.47;;;2.10;;
17214;SDS011;8723;51.502;6.918;2022-09-01T06:22:08;3.60;;;2.10;;
17214;SDS011;8723;51.502;6.918;2022-09-01T06:24:35;3.88;;;2.20;;
17214;SDS011;8723;51.502;6.918;2022-09-01T06:27:04;3.35;;;2.35;;
17214;SDS011;8723;51.502;6.918;2022-09-01T06:29:33;3.50;;;1.92;;
17214;SDS011;8723;51.502;6.918;2022-09-01T06:32:02;3.92;;;2.40;;
17214;SDS011;8723;51.502;6.918;2022-09-01T06:34:32;4.93;;;2.05;;
17214;SDS011;8723;51.502;6.918;2022-09-01T06:37:01;3.60;;;2.03;;
17214;SDS011;8723;51.502;6.918;2022-09-01T06:39:28;3.65;;;1.80;;
17214;SDS011;8723;51.502;6.918;2022-09-01T06:41:55;3.22;;;1.70;;
17214;SDS011;8723;51.502;6.918;2022-09-01T06:44:23;3.03;;;2.10;;
17214;SDS011;8723;51.502;6.918;2022-09-01T06:46:50;5.30;;;2.20;;
17214;SDS011;8723;51.502;6.918;2022-09-01T06:49:18;5.53;;;1.90;;
17214;SDS011;8723;51.502;6.918;2022-09-01T06:51:45;4.10;;;2.80;;
17214;SDS011;8723;51.502;6.918;2022-09-01T06:54:15;6.20;;;2.23;;
17214;SDS011;8723;51.502;6.918;2022-09-01T06:56:44;3.17;;;2.17;;
17214;SDS011;8723;51.502;6.918;2022-09-01T06:59:11;3.85;;;1.90;;
17214;SDS011;8723;51.502;6.918;2022-09-01T07:01:39;4.95;;;1.90;;
17214;SDS011;8723;51.502;6.918;2022-09-01T07:04:07;3.70;;;1.97;;
17214;SDS011;8723;51.502;6.918;2022-09-01T07:06:34;3.53;;;2.08;;
17214;SDS011;8723;51.502;6.918;2022-09-01T07:09:01;6.20;;;1.88;;
17214;SDS011;8723;51.502;6.918;2022-09-01T07:11:31;3.80;;;1.73;;
17214;SDS011;8723;51.502;6.918;2022-09-01T07:14:00;5.00;;;2.67;;
17214;SDS011;8723;51.502;6.918;2022-09-01T07:16:28;5.77;;;2.50;;
17214;SDS011;8723;51.502;6.918;2022-09-01T07:18:59;5.75;;;2.00;;
17214;SDS011;8723;51.502;6.918;2022-09-01T07:21:27;3.92;;;2.00;;
17214;SDS011;8723;51.502;6.918;2022-09-01T07:23:56;6.17;;;2.30;;
17214;SDS011;8723;51.502;6.918;2022-09-01T07:26:25;4.18;;;2.28;;
17214;SDS011;8723;51.502;6.918;2022-09-01T07:28:54;3.45;;;1.70;;
17214;SDS011;8723;51.502;6.918;2022-09-01T07:31:23;3.42;;;1.95;;
17214;SDS011;8723;51.502;6.918;2022-09-01T07:33:50;4.72;;;1.90;;
17214;SDS011;8723;51.502;6.918;2022-09-01T07:36:18;6.60;;;2.28;;
17214;SDS011;8723;51.502;6.918;2022-09-01T07:38:46;5.07;;;1.90;;
17214;SDS011;8723;51.502;6.918;2022-09-01T07:41:15;4.32;;;2.08;;
17214;SDS011;8723;51.502;6.918;2022-09-01T07:43:43;2.95;;;1.90;;
17214;SDS011;8723;51.502;6.918;2022-09-01T07:46:11;3.80;;;1.92;;
17214;SDS011;8723;51.502;6.918;2022-09-01T07:48:38;3.42;;;1.73;;
17214;SDS011;8723;51.502;6.918;2022-09-01T07:51:05;4.47;;;1.80;;
17214;SDS011;8723;51.502;6.918;2022-09-01T07:53:33;3.28;;;1.77;;
17214;SDS011;8723;51.502;6.918;2022-09-01T07:56:04;2.70;;;1.52;;
17214;SDS011;8723;51.502;6.918;2022-09-01T07:58:33;5.20;;;1.40;;
17214;SDS011;8723;51.502;6.918;2022-09-01T08:01:04;2.50;;;1.20;;
17214;SDS011;8723;51.502;6.918;2022-09-01T08:03:33;2.90;;;1.38;;
17214;SDS011;8723;51.502;6.918;2022-09-01T08:06:01;4.00;;;1.40;;
17214;SDS011;8723;51.502;6.918;2022-09-01T08:08:30;3.20;;;1.70;;
17214;SDS011;8723;51.502;6.918;2022-09-01T08:10:58;2.43;;;1.37;;
17214;SDS011;8723;51.502;6.918;2022-09-01T08:13:25;5.45;;;1.80;;
17214;SDS011;8723;51.502;6.918;2022-09-01T08:15:52;3.60;;;1.52;;
17214;SDS011;8723;51.502;6.918;2022-09-01T08:18:19;2.35;;;1.38;;
17214;SDS011;8723;51.502;6.918;2022-09-01T08:20:48;2.95;;;1.55;;
17214;SDS011;8723;51.502;6.918;2022-09-01T08:23:16;2.35;;;1.38;;
17214;SDS011;8723;51.502;6.918;2022-09-01T08:25:45;4.57;;;1.58;;
17214;SDS011;8723;51.502;6.918;2022-09-01T08:28:13;1.65;;;1.15;;
17214;SDS011;8723;51.502;6.918;2022-09-01T08:30:41;2.42;;;1.00;;
17214;SDS011;8723;51.502;6.918;2022-09-01T08:33:09;2.35;;;1.30;;
17214;SDS011;8723;51.502;6.918;2022-09-01T08:35:38;3.95;;;1.50;;
17214;SDS011;8723;51.502;6.918;2022-09-01T08:38:07;2.40;;;1.10;;
17214;SDS011;8723;51.502;6.918;2022-09-01T08:40:34;3.13;;;1.20;;
17214;SDS011;8723;51.502;6.918;2022-09-01T08:43:04;2.60;;;1.17;;
17214;SDS011;8723;51.502;6.918;2022-09-01T08:45:34;2.30;;;1.10;;
17214;SDS011;8723;51.502;6.918;2022-09-01T08:48:06;1.23;;;1.10;;
17214;SDS011;8723;51.502;6.918;2022-09-01T08:50:35;2.08;;;1.30;;
17214;SDS011;8723;51.502;6.918;2022-09-01T08:53:04;2.00;;;1.05;;
17214;SDS011;8723;51.502;6.918;2022-09-01T08:55:35;2.30;;;1.10;;
17214;SDS011;8723;51.502;6.918;2022-09-01T08:58:04;2.95;;;1.00;;
17214;SDS011;8723;51.502;6.918;2022-09-01T09:00:32;3.60;;;0.90;;
17214;SDS011;8723;51.502;6.918;2022-09-01T09:03:09;2.22;;;0.95;;
17214;SDS011;8723;51.502;6.918;2022-09-01T09:05:45;1.48;;;1.00;;
17214;SDS011;8723;51.502;6.918;2022-09-01T09:08:25;2.03;;;1.07;;
17214;SDS011;8723;51.502;6.918;2022-09-01T09:10:57;1.80;;;0.90;;
17214;SDS011;8723;51.502;6.918;2022-09-01T09:13:28;1.10;;;1.00;;
17214;SDS011;8723;51.502;6.918;2022-09-01T09:15:57;2.53;;;1.30;;
17214;SDS011;8723;51.502;6.918;2022-09-01T09:18:27;2.10;;;1.15;;
17214;SDS011;8723;51.502;6.918;2022-09-01T09:20:55;2.10;;;0.90;;
17214;SDS011;8723;51.502;6.918;2022-09-01T09:23:24;3.42;;;0.93;;
17214;SDS011;8723;51.502;6.918;2022-09-01T09:25:52;1.30;;;0.80;;
17214;SDS011;8723;51.502;6.918;2022-09-01T09:28:21;2.90;;;0.90;;
17214;SDS011;8723;51.502;6.918;2022-09-01T09:30:48;1.17;;;1.02;;
17214;SDS011;8723;51.502;6.918;2022-09-01T09:36:08;2.42;;;0.98;;
17214;SDS011;8723;51.502;6.918;2022-09-01T09:38:41;1.90;;;1.10;;
17214;SDS011;8723;51.502;6.918;2022-09-01T09:41:14;1.80;;;0.90;;
17214;SDS011;8723;51.502;6.918;2022-09-01T09:43:44;4.53;;;1.00;;
17214;SDS011;8723;51.502;6.918;2022-09-01T09:46:19;1.80;;;0.95;;
17214;SDS011;8723;51.502;6.918;2022-09-01T09:48:46;1.77;;;0.80;;
17214;SDS011;8723;51.502;6.918;2022-09-01T09:51:15;1.30;;;0.70;;
17214;SDS011;8723;51.502;6.918;2022-09-01T09:53:42;1.55;;;0.90;;
17214;SDS011;8723;51.502;6.918;2022-09-01T09:56:16;0.88;;;0.70;;
17214;SDS011;8723;51.502;6.918;2022-09-01T09:58:46;1.85;;;0.95;;
17214;SDS011;8723;51.502;6.918;2022-09-01T10:01:27;2.45;;;0.73;;
17214;SDS011;8723;51.502;6.918;2022-09-01T10:03:55;2.00;;;1.10;;
17214;SDS011;8723;51.502;6.918;2022-09-01T10:06:30;1.88;;;0.70;;
17214;SDS011;8723;51.502;6.918;2022-09-01T10:08:58;3.13;;;1.20;;
17214;SDS011;8723;51.502;6.918;2022-09-01T10:11:28;2.40;;;1.02;;
17214;SDS011;8723;51.502;6.918;2022-09-01T10:13:56;1.23;;;0.70;;
17214;SDS011;8723;51.502;6.918;2022-09-01T10:16:25;2.47;;;1.10;;
17214;SDS011;8723;51.502;6.918;2022-09-01T10:18:54;1.83;;;0.93;;
17214;SDS011;8723;51.502;6.918;2022-09-01T10:21:25;0.80;;;0.80;;
17214;SDS011;8723;51.502;6.918;2022-09-01T10:23:54;1.45;;;0.90;;
17214;SDS011;8723;51.502;6.918;2022-09-01T10:26:21;1.38;;;0.90;;
17214;SDS011;8723;51.502;6.918;2022-09-01T10:28:51;2.28;;;1.00;;
17214;SDS011;8723;51.502;6.918;2022-09-01T10:31:20;0.82;;;0.70;;
17214;SDS011;8723;51.502;6.918;2022-09-01T10:33:48;0.95;;;0.90;;
17214;SDS011;8723;51.502;6.918;2022-09-01T10:36:15;2.42;;;1.05;;
17214;SDS011;8723;51.502;6.918;2022-09-01T10:38:43;1.35;;;0.80;;
17214;SDS011;8723;51.502;6.918;2022-09-01T10:41:16;1.90;;;0.80;;
17214;SDS011;8723;51.502;6.918;2022-09-01T10:44:08;2.17;;;0.80;;
17214;SDS011;8723;51.502;6.918;2022-09-01T10:49:17;1.35;;;1.00;;
17214;SDS011;8723;51.502;6.918;2022-09-01T10:51:44;2.03;;;1.30;;
17214;SDS011;8723;51.502;6.918;2022-09-01T10:57:19;1.27;;;1.00;;
17214;SDS011;8723;51.502;6.918;2022-09-01T10:59:48;2.20;;;1.10;;
17214;SDS011;8723;51.502;6.918;2022-09-01T11:02:17;2.00;;;1.20;;
17214;SDS011;8723;51.502;6.918;2022-09-01T11:07:31;2.08;;;1.20;;
17214;SDS011;8723;51.502;6.918;2022-09-01T11:10:07;2.20;;;1.08;;
17214;SDS011;8723;51.502;6.918;2022-09-01T11:12:41;1.10;;;1.00;;
17214;SDS011;8723;51.502;6.918;2022-09-01T11:15:33;1.15;;;0.93;;
17214;SDS011;8723;51.502;6.918;2022-09-01T11:18:01;1.95;;;1.27;;
17214;SDS011;8723;51.502;6.918;2022-09-01T11:20:30;1.33;;;1.10;;
17214;SDS011;8723;51.502;6.918;2022-09-01T11:22:59;1.77;;;1.15;;
17214;SDS011;8723;51.502;6.918;2022-09-01T11:28:05;2.00;;;1.00;;
17214;SDS011;8723;51.502;6.918;2022-09-01T11:30:39;1.52;;;1.10;;
17214;SDS011;8723;51.502;6.918;2022-09-01T11:33:19;1.30;;;1.20;;
17214;SDS011;8723;51.502;6.918;2022-09-01T11:35:56;1.90;;;1.20;;
17214;SDS011;8723;51.502;6.918;2022-09-01T11:38:24;1.73;;;1.17;;
17214;SDS011;8723;51.502;6.918;2022-09-01T11:40:53;1.48;;;1.10;;
17214;SDS011;8723;51.502;6.918;2022-09-01T11:43:21;3.17;;;1.48;;
17214;SDS011;8723;51.502;6.918;2022-09-01T11:45:52;1.67;;;0.85;;
17214;SDS011;8723;51.502;6.918;2022-09-01T11:48:23;1.15;;;0.93;;
17214;SDS011;8723;51.502;6.918;2022-09-01T11:50:55;2.33;;;1.33;;
17214;SDS011;8723;51.502;6.918;2022-09-01T11:53:24;1.80;;;1.50;;
17214;SDS011;8723;51.502;6.918;2022-09-01T11:55:52;1.33;;;1.20;;
17214;SDS011;8723;51.502;6.918;2022-09-01T11:58:28;1.55;;;1.30;;
17214;SDS011;8723;51.502;6.918;2022-09-01T12:01:11;2.23;;;1.10;;
17214;SDS011;8723;51.502;6.918;2022-09-01T12:03:39;2.20;;;1.30;;
17214;SDS011;8723;51.502;6.918;2022-09-01T12:06:07;2.80;;;1.30;;
17214;SDS011;8723;51.502;6.918;2022-09-01T12:08:36;1.40;;;1.30;;
17214;SDS011;8723;51.502;6.918;2022-09-01T12:11:04;2.17;;;1.10;;
17214;SDS011;8723;51.502;6.918;2022-09-01T12:13:32;2.00;;;1.45;;
17214;SDS011;8723;51.502;6.918;2022-09-01T12:16:00;1.60;;;1.50;;
17214;SDS011;8723;51.502;6.918;2022-09-01T12:18:30;1.40;;;1.30;;
17214;SDS011;8723;51.502;6.918;2022-09-01T12:20:59;1.13;;;1.00;;
17214;SDS011;8723;51.502;6.918;2022-09-01T12:23:28;2.15;;;1.30;;
17214;SDS011;8723;51.502;6.918;2022-09-01T12:25:56;1.50;;;1.20;;
17214;SDS011;8723;51.502;6.918;2022-09-01T12:28:25;2.60;;;1.30;;
17214;SDS011;8723;51.502;6.918;2022-09-01T12:30:55;2.88;;;1.50;;
17214;SDS011;8723;51.502;6.918;2022-09-01T12:33:22;1.55;;;1.30;;
17214;SDS011;8723;51.502;6.918;2022-09-01T12:35:51;3.55;;;1.20;;
17214;SDS011;8723;51.502;6.918;2022-09-01T12:38:23;3.40;;;1.40;;
17214;SDS011;8723;51.502;6.918;2022-09-01T12:40:51;4.28;;;1.50;;
17214;SDS011;8723;51.502;6.918;2022-09-01T12:43:32;1.73;;;1.13;;
17214;SDS011;8723;51.502;6.918;2022-09-01T12:45:59;1.65;;;1.20;;
17214;SDS011;8723;51.502;6.918;2022-09-01T12:48:29;1.77;;;1.30;;
17214;SDS011;8723;51.502;6.918;2022-09-01T12:50:58;2.80;;;1.20;;
17214;SDS011;8723;51.502;6.918;2022-09-01T12:53:27;1.63;;;1.40;;
17214;SDS011;8723;51.502;6.918;2022-09-01T12:56:00;2.85;;;1.50;;
17214;SDS011;8723;51.502;6.918;2022-09-01T12:58:28;2.80;;;1.30;;
17214;SDS011;8723;51.502;6.918;2022-09-01T13:00:57;1.65;;;1.23;;
17214;SDS011;8723;51.502;6.918;2022-09-01T13:03:25;3.17;;;1.50;;
17214;SDS011;8723;51.502;6.918;2022-09-01T13:05:54;3.10;;;1.30;;
17214;SDS011;8723;51.502;6.918;2022-09-01T13:08:24;2.53;;;1.20;;
17214;SDS011;8723;51.502;6.918;2022-09-01T13:10:53;3.95;;;1.50;;
17214;SDS011;8723;51.502;6.918;2022-09-01T13:13:20;2.45;;;1.40;;
17214;SDS011;8723;51.502;6.918;2022-09-01T13:15:49;1.55;;;1.13;;
17214;SDS011;8723;51.502;6.918;2022-09-01T13:18:17;2.10;;;1.40;;
17214;SDS011;8723;51.502;6.918;2022-09-01T13:20:45;1.40;;;1.30;;
17214;SDS011;8723;51.502;6.918;2022-09-01T13:23:12;1.60;;;1.27;;
17214;SDS011;8723;51.502;6.918;2022-09-01T13:25:41;1.75;;;1.60;;
17214;SDS011;8723;51.502;6.918;2022-09-01T13:28:12;2.17;;;1.30;;
17214;SDS011;8723;51.502;6.918;2022-09-01T13:30:39;1.50;;;1.10;;
17214;SDS011;8723;51.502;6.918;2022-09-01T13:33:07;2.65;;;1.40;;
17214;SDS011;8723;51.502;6.918;2022-09-01T13:35:36;1.30;;;1.20;;
17214;SDS011;8723;51.502;6.918;2022-09-01T13:38:03;2.72;;;1.50;;
17214;SDS011;8723;51.502;6.918;2022-09-01T13:40:30;1.40;;;1.23;;
17214;SDS011;8723;51.502;6.918;2022-09-01T13:42:59;2.50;;;1.45;;
17214;SDS011;8723;51.502;6.918;2022-09-01T13:45:28;1.40;;;1.30;;
17214;SDS011;8723;51.502;6.918;2022-09-01T13:47:56;2.60;;;1.47;;
17214;SDS011;8723;51.502;6.918;2022-09-01T13:50:23;2.00;;;1.20;;
17214;SDS011;8723;51.502;6.918;2022-09-01T13:52:52;1.92;;;1.65;;
17214;SDS011;8723;51.502;6.918;2022-09-01T13:55:22;2.05;;;1.27;;
17214;SDS011;8723;51.502;6.918;2022-09-01T13:57:49;2.28;;;1.15;;
17214;SDS011;8723;51.502;6.918;2022-09-01T14:00:18;2.08;;;1.42;;
17214;SDS011;8723;51.502;6.918;2022-09-01T14:02:48;1.40;;;1.30;;
17214;SDS011;8723;51.502;6.918;2022-09-01T14:05:18;1.83;;;1.20;;
17214;SDS011;8723;51.502;6.918;2022-09-01T14:07:45;1.65;;;1.40;;
17214;SDS011;8723;51.502;6.918;2022-09-01T14:10:12;3.60;;;1.40;;
17214;SDS011;8723;51.502;6.918;2022-09-01T14:12:40;2.55;;;1.35;;
17214;SDS011;8723;51.502;6.918;2022-09-01T14:15:08;2.13;;;1.27;;
17214;SDS011;8723;51.502;6.918;2022-09-01T14:17:37;2.28;;;1.40;;
17214;SDS011;8723;51.502;6.918;2022-09-01T14:20:06;3.63;;;1.55;;
17214;SDS011;8723;51.502;6.918;2022-09-01T14:22:34;2.28;;;1.60;;
17214;SDS011;8723;51.502;6.918;2022-09-01T14:25:02;1.27;;;1.17;;
17214;SDS011;8723;51.502;6.918;2022-09-01T14:27:29;1.23;;;1.13;;
17214;SDS011;8723;51.502;6.918;2022-09-01T14:29:56;1.57;;;1.20;;
17214;SDS011;8723;51.502;6.918;2022-09-01T14:32:23;2.63;;;1.30;;
17214;SDS011;8723;51.502;6.918;2022-09-01T14:34:53;2.92;;;1.23;;
17214;SDS011;8723;51.502;6.918;2022-09-01T14:37:21;2.65;;;1.00;;
17214;SDS011;8723;51.502;6.918;2022-09-01T14:39:49;1.85;;;1.30;;
17214;SDS011;8723;51.502;6.918;2022-09-01T14:42:16;2.47;;;1.33;;
17214;SDS011;8723;51.502;6.918;2022-09-01T14:44:44;1.10;;;1.00;;
17214;SDS011;8723;51.502;6.918;2022-09-01T14:47:11;1.35;;;1.23;;
17214;SDS011;8723;51.502;6.918;2022-09-01T14:49:38;2.10;;;1.15;;
17214;SDS011;8723;51.502;6.918;2022-09-01T14:52:07;2.37;;;1.50;;
17214;SDS011;8723;51.502;6.918;2022-09-01T14:54:35;2.38;;;1.30;;
17214;SDS011;8723;51.502;6.918;2022-09-01T14:57:03;1.83;;;1.30;;
17214;SDS011;8723;51.502;6.918;2022-09-01T14:59:30;2.10;;;1.33;;
17214;SDS011;8723;51.502;6.918;2022-09-01T15:01:57;3.20;;;1.10;;
17214;SDS011;8723;51.502;6.918;2022-09-01T15:04:24;2.67;;;1.20;;
17214;SDS011;8723;51.502;6.918;2022-09-01T15:06:52;1.50;;;1.08;;
17214;SDS011;8723;51.502;6.918;2022-09-01T15:09:20;2.03;;;0.93;;
17214;SDS011;8723;51.502;6.918;2022-09-01T15:11:48;1.65;;;1.10;;
17214;SDS011;8723;51.502;6.918;2022-09-01T15:14:15;1.55;;;1.10;;
17214;SDS011;8723;51.502;6.918;2022-09-01T15:16:42;1.42;;;0.93;;
17214;SDS011;8723;51.502;6.918;2022-09-01T15:19:11;1.35;;;1.10;;
17214;SDS011;8723;51.502;6.918;2022-09-01T15:21:39;1.10;;;1.00;;
17214;SDS011;8723;51.502;6.918;2022-09-01T15:24:07;2.00;;;1.00;;
17214;SDS011;8723;51.502;6.918;2022-09-01T15:26:35;1.20;;;1.10;;